Terminal Aerodrome Forecast
Issued by NWS Binghamton, NY

Home | Current Version | Previous Version | Text Only | Print | Product List | Glossary On
Versions: 1 2 3 4 5 6 7 8 9 10 11 12 13 14 15 16 17 18 19 20 21 22 23
000
FTUS41 KBGM 021737
TAFBGM
TAF
KBGM 021737Z 0218/0318 32005KT P6SM BKN040
     FM022100 32007KT P6SM SCT060
     FM022300 34005KT P6SM BKN250
     FM030800 01004KT P6SM SCT080 BKN250
      TEMPO 0309/0313 4SM BR=

USA.gov is the U.S. government's official web portal to all federal, state and local government web resources and services.